createdAt,value
2023-01-17T00:02:26.440Z,10.90
2023-01-17T00:05:12.253Z,10.92
2023-01-17T00:07:57.809Z,10.84
2023-01-17T00:10:27.830Z,10.89
2023-01-17T00:12:58.981Z,10.96
2023-01-17T00:15:28.584Z,10.83
2023-01-17T00:17:56.758Z,10.90
2023-01-17T00:20:44.315Z,10.85
2023-01-17T00:23:34.754Z,10.83
2023-01-17T00:26:05.542Z,10.91
2023-01-17T00:28:36.286Z,10.94
2023-01-17T00:31:04.625Z,10.87
2023-01-17T00:33:31.599Z,10.83
2023-01-17T00:36:00.067Z,10.76
2023-01-17T00:38:28.787Z,10.84
2023-01-17T00:41:01.965Z,10.74
2023-01-17T00:43:48.809Z,10.82
2023-01-17T00:46:36.262Z,10.77
2023-01-17T00:49:22.641Z,10.87
2023-01-17T00:52:08.421Z,10.82
2023-01-17T00:54:54.258Z,10.87
2023-01-17T00:57:39.692Z,10.93
2023-01-17T01:00:27.238Z,10.97
2023-01-17T01:03:14.128Z,10.99
2023-01-17T01:05:59.994Z,10.96
2023-01-17T01:08:48.051Z,10.93
2023-01-17T01:11:36.411Z,10.87
2023-01-17T01:14:24.717Z,11.03
2023-01-17T01:17:10.557Z,10.88
2023-01-17T01:19:57.313Z,10.98
2023-01-17T01:22:43.164Z,10.93
2023-01-17T01:25:28.777Z,10.80
2023-01-17T01:28:22.320Z,10.88
2023-01-17T01:31:08.027Z,10.90
2023-01-17T01:33:41.295Z,10.82
2023-01-17T01:36:10.985Z,10.85
2023-01-17T01:38:39.362Z,10.81
2023-01-17T01:41:07.472Z,10.81
2023-01-17T01:43:43.496Z,10.85
2023-01-17T01:46:14.345Z,11.02
2023-01-17T01:48:48.322Z,10.99
2023-01-17T01:51:21.763Z,10.85
2023-01-17T01:53:55.260Z,11.03
2023-01-17T01:56:24.664Z,11.03
2023-01-17T01:58:53.998Z,11.01
2023-01-17T02:01:22.255Z,11.00
2023-01-17T02:03:51.223Z,10.99
2023-01-17T02:06:31.348Z,10.93
2023-01-17T02:09:03.495Z,11.02
2023-01-17T02:11:31.978Z,10.81
2023-01-17T02:14:00.372Z,10.89
2023-01-17T02:16:44.433Z,10.62
2023-01-17T02:19:37.106Z,10.74
2023-01-17T02:22:23.974Z,10.83
2023-01-17T02:25:24.341Z,10.92
2023-01-17T02:28:08.891Z,10.62
2023-01-17T02:30:42.268Z,10.66
2023-01-17T02:33:19.013Z,10.97
2023-01-17T02:35:57.272Z,10.48
2023-01-17T02:38:33.168Z,10.68
2023-01-17T02:41:05.317Z,10.46
2023-01-17T02:43:35.961Z,10.61
2023-01-17T02:46:06.126Z,10.43
2023-01-17T02:48:37.525Z,10.15
2023-01-17T02:51:19.273Z,10.46
2023-01-17T02:53:59.960Z,10.49
2023-01-17T02:56:42.207Z,10.24
2023-01-17T02:59:22.006Z,10.22
2023-01-17T03:02:05.013Z,10.15
2023-01-17T03:04:38.932Z,9.99
2023-01-17T03:07:16.283Z,10.22
2023-01-17T03:09:46.773Z,10.45
2023-01-17T03:12:15.463Z,10.18
2023-01-17T03:14:43.537Z,10.15
2023-01-17T03:17:13.249Z,10.40
2023-01-17T03:19:41.635Z,10.18
2023-01-17T03:22:09.815Z,10.16
2023-01-17T03:24:38.516Z,10.27
2023-01-17T03:27:06.801Z,10.20
2023-01-17T03:29:34.857Z,10.22
2023-01-17T03:32:02.882Z,10.51
2023-01-17T03:34:32.581Z,10.46
2023-01-17T03:37:00.596Z,10.56
2023-01-17T03:39:28.544Z,10.53
2023-01-17T03:41:56.771Z,10.49
2023-01-17T03:44:24.745Z,10.58
2023-01-17T03:46:52.719Z,10.61
2023-01-17T03:49:21.157Z,10.57
2023-01-17T03:51:50.519Z,10.59
2023-01-17T03:54:18.605Z,10.62
2023-01-17T03:56:47.085Z,10.61
2023-01-17T03:59:15.186Z,10.42
2023-01-17T04:01:43.342Z,10.22
2023-01-17T04:04:11.583Z,10.56
2023-01-17T04:06:39.594Z,10.52
2023-01-17T04:09:09.035Z,10.36
2023-01-17T04:11:37.321Z,10.52
2023-01-17T04:14:05.230Z,10.46
2023-01-17T04:16:33.772Z,10.25
2023-01-17T04:19:02.229Z,10.43
2023-01-17T04:21:30.304Z,10.38
2023-01-17T04:23:58.432Z,10.11
2023-01-17T04:26:28.133Z,10.28
2023-01-17T04:28:56.188Z,10.17
2023-01-17T04:31:24.214Z,10.15
2023-01-17T04:33:52.433Z,9.88
2023-01-17T04:36:20.422Z,10.18
2023-01-17T04:38:48.492Z,9.98
2023-01-17T04:41:16.706Z,10.04
2023-01-17T04:43:45.907Z,9.93
2023-01-17T04:46:13.989Z,10.23
2023-01-17T04:48:42.231Z,9.95
2023-01-17T04:51:10.244Z,10.00
2023-01-17T04:53:38.631Z,9.91
2023-01-17T04:56:07.488Z,9.72
2023-01-17T04:58:35.551Z,9.81
2023-01-17T05:01:05.751Z,9.94
2023-01-17T05:03:35.415Z,9.74
2023-01-17T05:06:03.520Z,9.93
2023-01-17T05:08:31.674Z,10.01
2023-01-17T05:10:59.948Z,10.01
2023-01-17T05:13:28.046Z,9.90
2023-01-17T05:15:58.388Z,10.03
2023-01-17T05:18:28.210Z,9.93
2023-01-17T05:21:02.258Z,9.97
2023-01-17T05:23:30.596Z,9.91
2023-01-17T05:25:58.568Z,9.95
2023-01-17T05:28:26.687Z,10.22
2023-01-17T05:30:54.912Z,9.77
2023-01-17T05:33:23.642Z,10.12
2023-01-17T05:35:53.174Z,9.98
2023-01-17T05:38:22.583Z,10.04
2023-01-17T05:40:51.284Z,10.03
2023-01-17T05:43:20.280Z,10.02
2023-01-17T05:45:50.637Z,9.97
2023-01-17T05:48:18.710Z,9.96
2023-01-17T05:50:46.873Z,10.02
2023-01-17T05:53:18.034Z,9.90
2023-01-17T05:55:46.326Z,9.87
2023-01-17T05:58:16.921Z,10.00
2023-01-17T06:00:45.368Z,9.92
2023-01-17T06:03:13.765Z,9.58
2023-01-17T06:05:42.181Z,9.42
2023-01-17T06:08:11.082Z,9.79
2023-01-17T06:10:41.011Z,9.88
2023-01-17T06:13:12.244Z,9.95
2023-01-17T06:15:41.181Z,9.74
2023-01-17T06:18:11.287Z,9.88
2023-01-17T06:20:40.887Z,9.90
2023-01-17T06:23:11.742Z,9.99
2023-01-17T06:25:44.042Z,9.76
2023-01-17T06:28:14.450Z,9.73
2023-01-17T06:30:43.903Z,9.86
2023-01-17T06:33:12.865Z,9.80
2023-01-17T06:35:44.226Z,9.87
2023-01-17T06:38:12.380Z,9.62
2023-01-17T06:40:41.952Z,9.75
2023-01-17T06:43:10.116Z,9.64
2023-01-17T06:45:38.520Z,9.73
2023-01-17T06:48:07.239Z,9.45
2023-01-17T06:50:35.603Z,9.69
2023-01-17T06:53:06.293Z,9.74
2023-01-17T06:55:35.884Z,9.64
2023-01-17T06:58:05.596Z,9.56
2023-01-17T07:00:35.181Z,9.61
2023-01-17T07:03:03.606Z,9.58
2023-01-17T07:05:32.872Z,9.64
2023-01-17T07:08:00.875Z,9.56
2023-01-17T07:10:29.279Z,9.45
2023-01-17T07:13:00.648Z,9.62
2023-01-17T07:15:30.419Z,9.60
2023-01-17T07:18:01.423Z,9.26
2023-01-17T07:20:29.712Z,9.65
2023-01-17T07:22:57.690Z,9.59
2023-01-17T07:25:27.759Z,9.62
2023-01-17T07:27:57.568Z,9.62
2023-01-17T07:30:27.047Z,9.66
2023-01-17T07:32:56.997Z,9.60
2023-01-17T07:35:27.151Z,9.50
2023-01-17T07:37:56.092Z,9.45
2023-01-17T07:40:25.112Z,9.73
2023-01-17T07:42:53.097Z,9.50
2023-01-17T07:45:21.943Z,9.33
2023-01-17T07:47:50.272Z,9.58
2023-01-17T07:50:19.828Z,9.43
2023-01-17T07:52:50.228Z,9.42
2023-01-17T07:55:18.497Z,9.43
2023-01-17T07:57:50.073Z,9.40
2023-01-17T08:00:19.542Z,9.45
2023-01-17T08:02:48.048Z,9.34
2023-01-17T08:05:16.419Z,9.50
2023-01-17T08:07:45.904Z,9.37
2023-01-17T08:10:17.970Z,9.41
2023-01-17T08:12:46.975Z,9.47
2023-01-17T08:15:16.394Z,9.46
2023-01-17T08:17:47.031Z,9.69
2023-01-17T08:20:16.107Z,9.34
2023-01-17T08:22:46.196Z,9.43
2023-01-17T08:25:14.505Z,9.85
2023-01-17T08:27:42.793Z,9.74
2023-01-17T08:30:11.996Z,9.73
2023-01-17T08:32:40.875Z,9.97
2023-01-17T08:35:10.492Z,9.99
2023-01-17T08:37:39.167Z,10.22
2023-01-17T08:40:11.093Z,10.07
2023-01-17T08:42:40.995Z,10.15
2023-01-17T08:45:11.231Z,10.44
2023-01-17T08:47:39.816Z,10.77
2023-01-17T08:50:08.587Z,10.38
2023-01-17T08:52:37.070Z,10.68
2023-01-17T08:55:06.529Z,10.93
2023-01-17T08:57:35.909Z,10.78
2023-01-17T09:00:04.731Z,10.89
2023-01-17T09:02:33.225Z,11.26
2023-01-17T09:05:01.516Z,11.17
2023-01-17T09:07:29.482Z,11.11
2023-01-17T09:09:57.851Z,10.98
2023-01-17T09:12:25.982Z,10.91
2023-01-17T09:14:55.303Z,10.82
2023-01-17T09:17:23.565Z,11.00
2023-01-17T09:19:52.487Z,10.69
2023-01-17T09:22:20.460Z,10.59
2023-01-17T09:24:48.865Z,10.58
2023-01-17T09:27:16.838Z,10.72
2023-01-17T09:29:45.186Z,10.89
2023-01-17T09:32:17.085Z,10.92
2023-01-17T09:34:45.343Z,10.90
2023-01-17T09:37:13.579Z,10.86
2023-01-17T09:39:41.474Z,10.36
2023-01-17T09:42:21.664Z,10.85
2023-01-17T09:44:52.472Z,10.86
2023-01-17T09:47:32.383Z,11.09
2023-01-17T09:50:28.558Z,10.99
2023-01-17T09:53:01.566Z,10.79
2023-01-17T09:55:35.371Z,10.81
2023-01-17T09:58:09.465Z,10.90
2023-01-17T10:00:47.694Z,11.07
2023-01-17T10:03:32.561Z,11.04
2023-01-17T10:06:31.944Z,10.96
2023-01-17T10:09:17.272Z,11.27
2023-01-17T10:11:56.550Z,10.84
2023-01-17T10:14:41.679Z,10.94
2023-01-17T10:17:16.128Z,11.35
2023-01-17T10:19:57.262Z,11.07
2023-01-17T10:22:43.404Z,11.40
2023-01-17T10:25:24.345Z,11.13
2023-01-17T10:27:58.753Z,11.28
2023-01-17T10:30:33.531Z,11.51
2023-01-17T10:33:05.148Z,11.77
2023-01-17T10:35:37.958Z,12.03
2023-01-17T10:38:12.956Z,12.34
2023-01-17T10:40:45.778Z,12.36
2023-01-17T10:43:19.362Z,12.47
2023-01-17T10:45:53.857Z,12.04
2023-01-17T10:48:35.016Z,11.94
2023-01-17T10:51:21.903Z,12.10
2023-01-17T10:54:04.460Z,12.08
2023-01-17T10:56:34.657Z,12.13
2023-01-17T10:59:17.291Z,12.34
2023-01-17T11:01:46.209Z,12.37
2023-01-17T11:04:19.829Z,12.51
2023-01-17T11:07:14.374Z,12.39
2023-01-17T11:09:43.888Z,12.64
2023-01-17T11:12:25.683Z,12.91
2023-01-17T11:15:00.933Z,12.64
2023-01-17T11:17:30.445Z,12.76
2023-01-17T11:20:19.944Z,12.50
2023-01-17T11:23:05.594Z,12.33
2023-01-17T11:25:35.055Z,12.53
2023-01-17T11:28:06.092Z,12.31
2023-01-17T11:30:34.788Z,12.03
2023-01-17T11:33:06.202Z,12.48
2023-01-17T11:35:36.796Z,12.34
2023-01-17T11:38:13.018Z,12.38
2023-01-17T11:40:42.983Z,12.08
2023-01-17T11:43:24.074Z,12.40
2023-01-17T11:46:04.317Z,12.32
2023-01-17T11:48:37.845Z,12.40
2023-01-17T11:51:18.595Z,12.43
2023-01-17T11:53:49.134Z,12.33
2023-01-17T11:56:27.437Z,12.32
2023-01-17T11:59:14.823Z,12.38
2023-01-17T12:01:48.331Z,12.42
2023-01-17T12:04:25.157Z,12.15
2023-01-17T12:07:09.208Z,11.85
2023-01-17T12:09:47.560Z,11.77
2023-01-17T12:12:43.055Z,11.87
2023-01-17T12:15:30.911Z,12.30
2023-01-17T12:18:18.987Z,12.11
2023-01-17T12:20:59.004Z,12.16
2023-01-17T12:23:41.890Z,12.28
2023-01-17T12:26:24.704Z,12.31
2023-01-17T12:29:08.502Z,12.16
2023-01-17T12:31:44.731Z,12.09
2023-01-17T12:34:24.644Z,11.73
2023-01-17T12:36:57.146Z,11.52
2023-01-17T12:39:31.389Z,11.44
2023-01-17T12:42:05.781Z,11.66
2023-01-17T12:44:51.619Z,11.33
2023-01-17T12:47:21.847Z,11.43
2023-01-17T12:49:58.334Z,11.32
2023-01-17T12:52:39.694Z,11.38
2023-01-17T12:55:15.482Z,11.36
2023-01-17T12:57:48.796Z,11.40
2023-01-17T13:00:22.958Z,11.29
2023-01-17T13:02:58.165Z,11.42
2023-01-17T13:05:31.754Z,11.23
2023-01-17T13:08:07.620Z,11.22
2023-01-17T13:10:40.672Z,11.27
2023-01-17T13:13:22.487Z,11.28
2023-01-17T13:15:54.205Z,11.30
2023-01-17T13:18:26.968Z,11.23
2023-01-17T13:21:21.189Z,11.27
2023-01-17T13:24:05.982Z,11.44
2023-01-17T13:26:45.989Z,11.64
2023-01-17T13:29:25.930Z,11.73
2023-01-17T13:32:07.131Z,11.75
2023-01-17T13:34:58.185Z,11.75
2023-01-17T13:38:03.030Z,11.83
2023-01-17T13:40:40.526Z,11.63
2023-01-17T13:43:15.469Z,11.68
2023-01-17T13:45:53.897Z,12.04
2023-01-17T13:48:32.309Z,12.25
2023-01-17T13:51:02.284Z,12.19
2023-01-17T13:53:47.665Z,12.17
2023-01-17T13:56:25.053Z,12.34
2023-01-17T13:58:58.784Z,12.20
2023-01-17T14:01:54.376Z,12.50
2023-01-17T14:04:23.878Z,12.51
2023-01-17T14:06:59.487Z,12.35
2023-01-17T14:09:37.943Z,12.35
2023-01-17T14:12:08.076Z,12.07
2023-01-17T14:14:49.797Z,11.97
2023-01-17T14:17:47.649Z,11.90
2023-01-17T14:20:41.299Z,11.94
2023-01-17T14:23:34.339Z,11.94
2023-01-17T14:26:19.446Z,11.92
2023-01-17T14:28:47.601Z,11.84
2023-01-17T14:31:17.929Z,11.66
2023-01-17T14:33:47.701Z,11.65
2023-01-17T14:36:25.531Z,11.64
2023-01-17T14:38:53.486Z,11.67
2023-01-17T14:41:24.903Z,11.68
2023-01-17T14:43:53.834Z,11.65
2023-01-17T14:46:26.534Z,11.67
2023-01-17T14:49:02.784Z,11.50
2023-01-17T14:51:35.109Z,11.50
2023-01-17T14:54:06.217Z,11.42
2023-01-17T14:56:35.236Z,11.33
2023-01-17T14:59:12.913Z,11.46
2023-01-17T15:01:41.999Z,11.50
2023-01-17T15:04:24.854Z,11.55
2023-01-17T15:06:53.688Z,11.45
2023-01-17T15:09:24.839Z,11.21
2023-01-17T15:11:55.218Z,11.23
2023-01-17T15:14:27.241Z,11.21
2023-01-17T15:16:56.147Z,11.19
2023-01-17T15:19:25.444Z,11.11
2023-01-17T15:21:55.156Z,11.09
2023-01-17T15:24:27.613Z,11.05
2023-01-17T15:26:55.714Z,11.02
2023-01-17T15:29:26.782Z,10.98
2023-01-17T15:31:58.270Z,10.96
2023-01-17T15:34:30.699Z,10.90
2023-01-17T15:37:01.124Z,10.85
2023-01-17T15:39:32.272Z,10.77
2023-01-17T15:42:03.165Z,10.68
2023-01-17T15:44:50.270Z,10.63
2023-01-17T15:47:28.393Z,10.58
2023-01-17T15:49:58.729Z,10.52
2023-01-17T15:52:27.063Z,10.44
2023-01-17T15:54:59.001Z,10.37
2023-01-17T15:57:29.548Z,10.28
2023-01-17T16:00:01.853Z,10.23
2023-01-17T16:02:36.724Z,10.17
2023-01-17T16:05:41.886Z,10.10
2023-01-17T16:08:31.568Z,10.04
2023-01-17T16:11:02.875Z,9.95
2023-01-17T16:13:32.720Z,9.83
2023-01-17T16:16:12.034Z,9.74
2023-01-17T16:18:40.362Z,9.65
2023-01-17T16:21:18.640Z,9.58
2023-01-17T16:23:47.102Z,9.51
2023-01-17T16:26:16.570Z,9.47
2023-01-17T16:28:44.897Z,9.45
2023-01-17T16:31:15.856Z,9.42
2023-01-17T16:33:45.945Z,9.35
2023-01-17T16:36:17.208Z,9.30
2023-01-17T16:38:46.722Z,9.24
2023-01-17T16:41:14.789Z,9.22
2023-01-17T16:43:43.190Z,9.19
2023-01-17T16:46:13.005Z,9.16
2023-01-17T16:48:41.076Z,9.09
2023-01-17T16:51:09.521Z,9.04
2023-01-17T16:53:39.083Z,8.99
2023-01-17T16:56:11.898Z,8.96
2023-01-17T16:58:40.266Z,8.88
2023-01-17T17:01:15.444Z,8.84
2023-01-17T17:03:44.698Z,8.76
2023-01-17T17:06:13.362Z,8.65
2023-01-17T17:08:43.142Z,8.61
2023-01-17T17:11:14.637Z,8.57
2023-01-17T17:13:44.260Z,8.50
2023-01-17T17:16:15.880Z,8.44
2023-01-17T17:18:44.824Z,8.37
2023-01-17T17:21:14.033Z,8.28
2023-01-17T17:23:43.343Z,8.22
2023-01-17T17:26:11.315Z,8.18
2023-01-17T17:28:39.484Z,8.15
2023-01-17T17:31:10.457Z,8.06
2023-01-17T17:33:38.846Z,7.98
2023-01-17T17:36:10.757Z,7.94
2023-01-17T17:38:51.034Z,7.89
2023-01-17T17:41:22.959Z,7.77
2023-01-17T17:43:52.270Z,7.64
2023-01-17T17:46:21.654Z,7.57
2023-01-17T17:48:50.389Z,7.52
2023-01-17T17:51:26.655Z,7.49
2023-01-17T17:53:56.789Z,7.47
2023-01-17T17:56:26.147Z,7.39
2023-01-17T17:58:54.598Z,7.33
2023-01-17T18:01:24.239Z,7.26
2023-01-17T18:03:53.589Z,7.21
2023-01-17T18:06:22.136Z,7.17
2023-01-17T18:08:52.120Z,7.12
2023-01-17T18:11:22.756Z,7.07
2023-01-17T18:13:53.377Z,7.00
2023-01-17T18:16:25.738Z,6.98
2023-01-17T18:18:55.242Z,6.88
2023-01-17T18:21:25.505Z,6.86
2023-01-17T18:23:56.651Z,6.85
2023-01-17T18:26:26.753Z,6.83
2023-01-17T18:28:57.730Z,6.80
2023-01-17T18:31:27.582Z,6.80
2023-01-17T18:33:56.927Z,6.77
2023-01-17T18:36:26.233Z,6.76
2023-01-17T18:38:54.398Z,6.76
2023-01-17T18:41:25.266Z,6.76
2023-01-17T18:43:56.025Z,6.74
2023-01-17T18:46:28.110Z,6.68
2023-01-17T18:48:57.849Z,6.57
2023-01-17T18:51:26.238Z,6.46
2023-01-17T18:53:54.866Z,6.38
2023-01-17T18:56:24.055Z,6.33
2023-01-17T18:58:52.252Z,6.31
2023-01-17T19:01:22.174Z,6.27
2023-01-17T19:03:54.071Z,6.27
2023-01-17T19:06:24.249Z,6.25
2023-01-17T19:08:52.819Z,6.24
2023-01-17T19:11:22.051Z,6.23
2023-01-17T19:13:50.967Z,6.20
2023-01-17T19:16:24.340Z,6.17
2023-01-17T19:18:53.885Z,6.16
2023-01-17T19:21:24.240Z,6.12
2023-01-17T19:23:52.490Z,6.09
2023-01-17T19:26:22.892Z,6.08
2023-01-17T19:28:51.851Z,6.02
2023-01-17T19:31:22.103Z,5.95
2023-01-17T19:33:52.426Z,5.93
2023-01-17T19:36:23.634Z,5.90
2023-01-17T19:39:04.105Z,5.80
2023-01-17T19:41:34.563Z,5.78
2023-01-17T19:44:05.938Z,5.75
2023-01-17T19:46:34.611Z,5.73
2023-01-17T19:49:03.656Z,5.70
2023-01-17T19:51:32.882Z,5.68
2023-01-17T19:54:01.853Z,5.66
2023-01-17T19:56:30.881Z,5.65
2023-01-17T19:59:01.353Z,5.64
2023-01-17T20:01:32.777Z,5.65
2023-01-17T20:04:02.506Z,5.64
2023-01-17T20:06:34.250Z,5.65
2023-01-17T20:09:02.867Z,5.62
2023-01-17T20:11:30.927Z,5.60
2023-01-17T20:14:00.110Z,5.59
2023-01-17T20:16:30.725Z,5.58
2023-01-17T20:18:59.467Z,5.57
2023-01-17T20:21:29.158Z,5.57
2023-01-17T20:24:00.557Z,5.57
2023-01-17T20:26:34.624Z,5.58
2023-01-17T20:29:06.879Z,5.57
2023-01-17T20:31:38.109Z,5.59
2023-01-17T20:34:08.137Z,5.55
2023-01-17T20:36:36.943Z,5.53
2023-01-17T20:39:08.075Z,5.53
2023-01-17T20:41:38.754Z,5.49
2023-01-17T20:44:08.969Z,5.48
2023-01-17T20:46:41.149Z,5.47
2023-01-17T20:49:14.739Z,5.39
2023-01-17T20:51:44.305Z,5.38
2023-01-17T20:54:15.615Z,5.34
2023-01-17T20:56:44.403Z,5.38
2023-01-17T20:59:14.713Z,5.38
2023-01-17T21:01:44.266Z,5.34
2023-01-17T21:04:13.122Z,5.33
2023-01-17T21:06:42.717Z,5.34
2023-01-17T21:09:14.968Z,5.35
2023-01-17T21:11:43.370Z,5.37
2023-01-17T21:14:11.335Z,5.39
2023-01-17T21:16:39.447Z,5.39
2023-01-17T21:19:11.898Z,5.38
2023-01-17T21:21:40.138Z,5.35
2023-01-17T21:24:08.623Z,5.38
2023-01-17T21:26:39.958Z,5.42
2023-01-17T21:29:09.659Z,5.40
2023-01-17T21:31:40.225Z,5.41
2023-01-17T21:34:10.421Z,5.42
2023-01-17T21:36:40.772Z,5.36
2023-01-17T21:39:12.645Z,5.32
2023-01-17T21:41:42.841Z,5.26
2023-01-17T21:44:14.741Z,5.31
2023-01-17T21:46:43.072Z,5.33
2023-01-17T21:49:12.092Z,5.37
2023-01-17T21:52:00.478Z,5.37
2023-01-17T21:54:44.662Z,5.36
2023-01-17T21:57:32.483Z,5.37
2023-01-17T22:00:00.897Z,5.34
2023-01-17T22:02:28.903Z,5.36
2023-01-17T22:04:57.382Z,5.35
2023-01-17T22:07:27.005Z,5.32
2023-01-17T22:09:56.382Z,5.27
2023-01-17T22:12:26.005Z,5.25
2023-01-17T22:14:54.458Z,5.23
2023-01-17T22:17:22.417Z,5.21
2023-01-17T22:19:50.710Z,5.19
2023-01-17T22:22:18.746Z,5.16
2023-01-17T22:24:46.858Z,5.20
2023-01-17T22:27:15.151Z,5.25
2023-01-17T22:29:44.549Z,5.27
2023-01-17T22:32:12.549Z,5.31
2023-01-17T22:34:40.723Z,5.34
2023-01-17T22:37:10.121Z,5.39
2023-01-17T22:39:38.635Z,5.42
2023-01-17T22:42:07.263Z,5.44
2023-01-17T22:44:35.260Z,5.47
2023-01-17T22:47:04.679Z,5.51
2023-01-17T22:49:32.817Z,5.54
2023-01-17T22:52:00.823Z,5.56
2023-01-17T22:54:28.790Z,5.56
2023-01-17T22:56:57.071Z,5.55
2023-01-17T22:59:25.026Z,5.54
2023-01-17T23:01:54.821Z,5.56
2023-01-17T23:04:24.399Z,5.53
2023-01-17T23:06:53.520Z,5.53
2023-01-17T23:09:21.564Z,5.53
2023-01-17T23:11:52.863Z,5.54
2023-01-17T23:14:24.474Z,5.57
2023-01-17T23:17:11.797Z,5.57
2023-01-17T23:19:43.246Z,5.57
2023-01-17T23:22:22.663Z,5.58
2023-01-17T23:24:52.573Z,5.58
2023-01-17T23:27:40.851Z,5.59
2023-01-17T23:30:12.181Z,5.56
2023-01-17T23:32:43.909Z,5.52
2023-01-17T23:35:13.689Z,5.52
2023-01-17T23:37:59.547Z,5.52
2023-01-17T23:40:27.775Z,5.49
2023-01-17T23:43:13.613Z,5.49
2023-01-17T23:45:41.700Z,5.48
2023-01-17T23:48:10.753Z,5.50
2023-01-17T23:50:42.481Z,5.49
2023-01-17T23:53:11.922Z,5.46
2023-01-17T23:55:43.442Z,5.47
2023-01-17T23:58:12.703Z,5.46
